sensor_id;sensor_type;location;lat;lon;timestamp;P1;durP1;ratioP1;P2;durP2;ratioP2
20441;SDS011;10380;52.102;20.614;2022-12-20T00:01:31;37.97;;;19.93;;
20441;SDS011;10380;52.102;20.614;2022-12-20T00:04:01;31.10;;;15.47;;
20441;SDS011;10380;52.102;20.614;2022-12-20T00:06:32;25.73;;;14.30;;
20441;SDS011;10380;52.102;20.614;2022-12-20T00:09:00;33.87;;;16.33;;
20441;SDS011;10380;52.102;20.614;2022-12-20T00:11:29;35.13;;;17.00;;
20441;SDS011;10380;52.102;20.614;2022-12-20T00:13:57;32.73;;;14.93;;
20441;SDS011;10380;52.102;20.614;2022-12-20T00:16:25;35.27;;;17.57;;
20441;SDS011;10380;52.102;20.614;2022-12-20T00:18:55;39.90;;;16.57;;
20441;SDS011;10380;52.102;20.614;2022-12-20T00:21:25;36.67;;;16.73;;
20441;SDS011;10380;52.102;20.614;2022-12-20T00:23:53;33.10;;;16.03;;
20441;SDS011;10380;52.102;20.614;2022-12-20T00:26:24;34.30;;;17.17;;
20441;SDS011;10380;52.102;20.614;2022-12-20T00:28:53;32.67;;;15.90;;
20441;SDS011;10380;52.102;20.614;2022-12-20T00:31:22;33.37;;;14.87;;
20441;SDS011;10380;52.102;20.614;2022-12-20T00:33:51;31.40;;;15.57;;
20441;SDS011;10380;52.102;20.614;2022-12-20T00:36:20;38.17;;;16.13;;
20441;SDS011;10380;52.102;20.614;2022-12-20T00:38:49;35.07;;;18.43;;
20441;SDS011;10380;52.102;20.614;2022-12-20T00:41:18;33.97;;;16.47;;
20441;SDS011;10380;52.102;20.614;2022-12-20T00:43:48;29.80;;;15.70;;
20441;SDS011;10380;52.102;20.614;2022-12-20T00:46:15;32.83;;;15.93;;
20441;SDS011;10380;52.102;20.614;2022-12-20T00:48:44;24.03;;;11.90;;
20441;SDS011;10380;52.102;20.614;2022-12-20T00:51:12;27.70;;;13.60;;
20441;SDS011;10380;52.102;20.614;2022-12-20T00:53:40;32.47;;;14.03;;
20441;SDS011;10380;52.102;20.614;2022-12-20T00:56:08;30.53;;;15.63;;
20441;SDS011;10380;52.102;20.614;2022-12-20T00:58:40;27.73;;;14.67;;
20441;SDS011;10380;52.102;20.614;2022-12-20T01:01:17;34.13;;;16.33;;
20441;SDS011;10380;52.102;20.614;2022-12-20T01:03:45;34.80;;;16.03;;
20441;SDS011;10380;52.102;20.614;2022-12-20T01:06:12;34.83;;;16.00;;
20441;SDS011;10380;52.102;20.614;2022-12-20T01:08:40;29.30;;;14.60;;
20441;SDS011;10380;52.102;20.614;2022-12-20T01:11:10;29.50;;;15.43;;
20441;SDS011;10380;52.102;20.614;2022-12-20T01:13:49;30.07;;;14.83;;
20441;SDS011;10380;52.102;20.614;2022-12-20T01:16:24;20.10;;;11.37;;
20441;SDS011;10380;52.102;20.614;2022-12-20T01:18:53;34.47;;;16.47;;
20441;SDS011;10380;52.102;20.614;2022-12-20T01:21:23;27.90;;;13.87;;
20441;SDS011;10380;52.102;20.614;2022-12-20T01:23:54;28.90;;;14.83;;
20441;SDS011;10380;52.102;20.614;2022-12-20T01:26:24;30.60;;;16.57;;
20441;SDS011;10380;52.102;20.614;2022-12-20T01:28:56;27.80;;;13.77;;
20441;SDS011;10380;52.102;20.614;2022-12-20T01:31:25;27.37;;;13.67;;
20441;SDS011;10380;52.102;20.614;2022-12-20T01:33:53;34.70;;;16.10;;
20441;SDS011;10380;52.102;20.614;2022-12-20T01:36:22;29.37;;;14.70;;
20441;SDS011;10380;52.102;20.614;2022-12-20T01:38:59;31.00;;;14.30;;
20441;SDS011;10380;52.102;20.614;2022-12-20T01:41:32;33.57;;;16.87;;
20441;SDS011;10380;52.102;20.614;2022-12-20T01:44:01;28.90;;;12.53;;
20441;SDS011;10380;52.102;20.614;2022-12-20T01:46:32;23.13;;;11.10;;
20441;SDS011;10380;52.102;20.614;2022-12-20T01:51:57;32.60;;;16.10;;
20441;SDS011;10380;52.102;20.614;2022-12-20T01:57:07;27.50;;;13.43;;
20441;SDS011;10380;52.102;20.614;2022-12-20T01:59:39;31.40;;;14.87;;
20441;SDS011;10380;52.102;20.614;2022-12-20T02:02:08;36.17;;;15.23;;
20441;SDS011;10380;52.102;20.614;2022-12-20T02:04:37;30.83;;;14.47;;
20441;SDS011;10380;52.102;20.614;2022-12-20T02:07:06;31.73;;;14.10;;
20441;SDS011;10380;52.102;20.614;2022-12-20T02:09:36;22.23;;;9.90;;
20441;SDS011;10380;52.102;20.614;2022-12-20T02:12:10;28.10;;;13.87;;
20441;SDS011;10380;52.102;20.614;2022-12-20T02:15:25;32.50;;;14.20;;
20441;SDS011;10380;52.102;20.614;2022-12-20T02:17:42;22.93;;;12.70;;
20441;SDS011;10380;52.102;20.614;2022-12-20T02:20:21;27.50;;;14.53;;
20441;SDS011;10380;52.102;20.614;2022-12-20T02:31:36;17.27;;;9.30;;
20441;SDS011;10380;52.102;20.614;2022-12-20T02:34:23;24.27;;;11.13;;
20441;SDS011;10380;52.102;20.614;2022-12-20T02:36:51;26.80;;;12.33;;
20441;SDS011;10380;52.102;20.614;2022-12-20T02:39:18;27.23;;;13.93;;
20441;SDS011;10380;52.102;20.614;2022-12-20T02:41:52;30.83;;;15.20;;
20441;SDS011;10380;52.102;20.614;2022-12-20T02:44:25;27.00;;;13.50;;
20441;SDS011;10380;52.102;20.614;2022-12-20T02:47:23;29.37;;;14.17;;
20441;SDS011;10380;52.102;20.614;2022-12-20T02:49:58;23.97;;;12.67;;
20441;SDS011;10380;52.102;20.614;2022-12-20T02:52:26;17.50;;;9.87;;
20441;SDS011;10380;52.102;20.614;2022-12-20T02:54:56;24.40;;;11.27;;
20441;SDS011;10380;52.102;20.614;2022-12-20T02:57:28;25.10;;;11.70;;
20441;SDS011;10380;52.102;20.614;2022-12-20T03:00:05;23.37;;;12.97;;
20441;SDS011;10380;52.102;20.614;2022-12-20T03:02:39;28.60;;;11.93;;
20441;SDS011;10380;52.102;20.614;2022-12-20T03:05:27;21.63;;;11.77;;
20441;SDS011;10380;52.102;20.614;2022-12-20T03:07:54;18.77;;;9.83;;
20441;SDS011;10380;52.102;20.614;2022-12-20T03:10:21;22.80;;;12.40;;
20441;SDS011;10380;52.102;20.614;2022-12-20T03:12:54;26.60;;;12.87;;
20441;SDS011;10380;52.102;20.614;2022-12-20T03:15:21;22.67;;;11.70;;
20441;SDS011;10380;52.102;20.614;2022-12-20T03:17:50;27.10;;;13.33;;
20441;SDS011;10380;52.102;20.614;2022-12-20T03:20:16;19.47;;;11.27;;
20441;SDS011;10380;52.102;20.614;2022-12-20T03:22:44;26.83;;;12.97;;
20441;SDS011;10380;52.102;20.614;2022-12-20T03:25:12;20.53;;;10.23;;
20441;SDS011;10380;52.102;20.614;2022-12-20T03:27:40;28.33;;;14.30;;
20441;SDS011;10380;52.102;20.614;2022-12-20T03:30:08;24.27;;;13.53;;
20441;SDS011;10380;52.102;20.614;2022-12-20T03:32:35;23.07;;;12.93;;
20441;SDS011;10380;52.102;20.614;2022-12-20T03:35:03;21.13;;;11.43;;
20441;SDS011;10380;52.102;20.614;2022-12-20T03:37:30;23.73;;;12.37;;
20441;SDS011;10380;52.102;20.614;2022-12-20T03:39:57;23.27;;;13.03;;
20441;SDS011;10380;52.102;20.614;2022-12-20T03:42:24;23.50;;;12.13;;
20441;SDS011;10380;52.102;20.614;2022-12-20T03:44:52;26.87;;;12.63;;
20441;SDS011;10380;52.102;20.614;2022-12-20T03:47:19;29.70;;;14.10;;
20441;SDS011;10380;52.102;20.614;2022-12-20T03:49:49;25.47;;;12.50;;
20441;SDS011;10380;52.102;20.614;2022-12-20T03:52:17;23.87;;;13.93;;
20441;SDS011;10380;52.102;20.614;2022-12-20T03:54:44;22.30;;;12.67;;
20441;SDS011;10380;52.102;20.614;2022-12-20T03:57:11;25.60;;;13.20;;
20441;SDS011;10380;52.102;20.614;2022-12-20T03:59:38;23.93;;;12.37;;
20441;SDS011;10380;52.102;20.614;2022-12-20T04:02:08;26.10;;;13.20;;
20441;SDS011;10380;52.102;20.614;2022-12-20T04:04:36;27.43;;;13.27;;
20441;SDS011;10380;52.102;20.614;2022-12-20T04:07:03;24.73;;;12.77;;
20441;SDS011;10380;52.102;20.614;2022-12-20T04:09:30;19.00;;;10.63;;
20441;SDS011;10380;52.102;20.614;2022-12-20T04:11:57;23.70;;;13.03;;
20441;SDS011;10380;52.102;20.614;2022-12-20T04:14:24;27.07;;;15.40;;
20441;SDS011;10380;52.102;20.614;2022-12-20T04:16:53;24.03;;;12.57;;
20441;SDS011;10380;52.102;20.614;2022-12-20T04:19:20;22.63;;;13.30;;
20441;SDS011;10380;52.102;20.614;2022-12-20T04:21:48;21.27;;;12.37;;
20441;SDS011;10380;52.102;20.614;2022-12-20T04:24:15;25.83;;;13.53;;
20441;SDS011;10380;52.102;20.614;2022-12-20T04:26:42;22.63;;;12.77;;
20441;SDS011;10380;52.102;20.614;2022-12-20T04:29:09;23.83;;;12.77;;
20441;SDS011;10380;52.102;20.614;2022-12-20T04:31:36;26.03;;;13.93;;
20441;SDS011;10380;52.102;20.614;2022-12-20T04:34:03;25.57;;;12.33;;
20441;SDS011;10380;52.102;20.614;2022-12-20T04:36:29;24.50;;;12.53;;
20441;SDS011;10380;52.102;20.614;2022-12-20T04:38:56;24.17;;;12.63;;
20441;SDS011;10380;52.102;20.614;2022-12-20T04:41:23;22.23;;;11.53;;
20441;SDS011;10380;52.102;20.614;2022-12-20T04:43:55;25.73;;;12.43;;
20441;SDS011;10380;52.102;20.614;2022-12-20T04:46:23;24.13;;;13.60;;
20441;SDS011;10380;52.102;20.614;2022-12-20T04:48:52;23.97;;;13.33;;
20441;SDS011;10380;52.102;20.614;2022-12-20T04:51:23;21.53;;;11.57;;
20441;SDS011;10380;52.102;20.614;2022-12-20T04:53:50;24.07;;;11.70;;
20441;SDS011;10380;52.102;20.614;2022-12-20T04:56:27;24.77;;;13.97;;
20441;SDS011;10380;52.102;20.614;2022-12-20T04:58:56;25.30;;;13.53;;
20441;SDS011;10380;52.102;20.614;2022-12-20T05:01:24;20.37;;;11.73;;
20441;SDS011;10380;52.102;20.614;2022-12-20T05:03:51;24.10;;;12.70;;
20441;SDS011;10380;52.102;20.614;2022-12-20T05:06:18;23.67;;;12.40;;
20441;SDS011;10380;52.102;20.614;2022-12-20T05:08:46;28.37;;;12.67;;
20441;SDS011;10380;52.102;20.614;2022-12-20T05:11:13;23.10;;;11.67;;
20441;SDS011;10380;52.102;20.614;2022-12-20T05:13:39;24.67;;;13.40;;
20441;SDS011;10380;52.102;20.614;2022-12-20T05:16:08;26.03;;;13.20;;
20441;SDS011;10380;52.102;20.614;2022-12-20T05:18:41;25.13;;;12.43;;
20441;SDS011;10380;52.102;20.614;2022-12-20T05:21:15;27.50;;;13.03;;
20441;SDS011;10380;52.102;20.614;2022-12-20T05:24:00;24.43;;;12.60;;
20441;SDS011;10380;52.102;20.614;2022-12-20T05:26:46;27.00;;;12.93;;
20441;SDS011;10380;52.102;20.614;2022-12-20T05:29:13;24.43;;;12.43;;
20441;SDS011;10380;52.102;20.614;2022-12-20T05:31:45;23.87;;;12.63;;
20441;SDS011;10380;52.102;20.614;2022-12-20T05:36:43;23.70;;;11.87;;
20441;SDS011;10380;52.102;20.614;2022-12-20T05:39:09;22.90;;;11.13;;
20441;SDS011;10380;52.102;20.614;2022-12-20T05:41:40;25.53;;;14.20;;
20441;SDS011;10380;52.102;20.614;2022-12-20T05:44:09;26.33;;;13.17;;
20441;SDS011;10380;52.102;20.614;2022-12-20T05:46:37;23.57;;;11.87;;
20441;SDS011;10380;52.102;20.614;2022-12-20T05:49:11;24.27;;;13.37;;
20441;SDS011;10380;52.102;20.614;2022-12-20T05:51:38;27.83;;;14.57;;
20441;SDS011;10380;52.102;20.614;2022-12-20T05:54:05;23.17;;;12.80;;
20441;SDS011;10380;52.102;20.614;2022-12-20T05:56:37;24.23;;;12.73;;
20441;SDS011;10380;52.102;20.614;2022-12-20T05:59:04;25.27;;;12.37;;
20441;SDS011;10380;52.102;20.614;2022-12-20T06:01:31;24.40;;;12.63;;
20441;SDS011;10380;52.102;20.614;2022-12-20T06:06:30;27.27;;;13.33;;
20441;SDS011;10380;52.102;20.614;2022-12-20T06:08:56;21.13;;;11.07;;
20441;SDS011;10380;52.102;20.614;2022-12-20T06:11:23;30.53;;;13.57;;
20441;SDS011;10380;52.102;20.614;2022-12-20T06:13:55;25.17;;;12.43;;
20441;SDS011;10380;52.102;20.614;2022-12-20T06:16:22;23.83;;;13.53;;
20441;SDS011;10380;52.102;20.614;2022-12-20T06:18:49;28.23;;;13.03;;
20441;SDS011;10380;52.102;20.614;2022-12-20T06:21:16;23.20;;;13.33;;
20441;SDS011;10380;52.102;20.614;2022-12-20T06:23:43;24.87;;;12.33;;
20441;SDS011;10380;52.102;20.614;2022-12-20T06:26:13;24.20;;;12.97;;
20441;SDS011;10380;52.102;20.614;2022-12-20T06:28:40;27.17;;;13.23;;
20441;SDS011;10380;52.102;20.614;2022-12-20T06:31:09;23.53;;;13.07;;
20441;SDS011;10380;52.102;20.614;2022-12-20T06:33:37;24.83;;;12.43;;
20441;SDS011;10380;52.102;20.614;2022-12-20T06:36:12;25.60;;;13.03;;
20441;SDS011;10380;52.102;20.614;2022-12-20T06:38:39;23.40;;;12.17;;
20441;SDS011;10380;52.102;20.614;2022-12-20T06:41:06;25.90;;;13.37;;
20441;SDS011;10380;52.102;20.614;2022-12-20T06:43:40;22.30;;;11.70;;
20441;SDS011;10380;52.102;20.614;2022-12-20T06:46:07;26.23;;;13.57;;
20441;SDS011;10380;52.102;20.614;2022-12-20T06:48:34;24.60;;;12.43;;
20441;SDS011;10380;52.102;20.614;2022-12-20T06:51:03;23.17;;;12.93;;
20441;SDS011;10380;52.102;20.614;2022-12-20T06:53:30;25.93;;;12.67;;
20441;SDS011;10380;52.102;20.614;2022-12-20T06:55:58;25.70;;;13.40;;
20441;SDS011;10380;52.102;20.614;2022-12-20T06:58:27;25.10;;;13.50;;
20441;SDS011;10380;52.102;20.614;2022-12-20T07:00:55;26.40;;;12.80;;
20441;SDS011;10380;52.102;20.614;2022-12-20T07:03:21;27.30;;;12.90;;
20441;SDS011;10380;52.102;20.614;2022-12-20T07:05:52;22.80;;;11.87;;
20441;SDS011;10380;52.102;20.614;2022-12-20T07:08:21;26.37;;;13.03;;
20441;SDS011;10380;52.102;20.614;2022-12-20T07:10:55;22.60;;;11.97;;
20441;SDS011;10380;52.102;20.614;2022-12-20T07:13:23;22.43;;;11.60;;
20441;SDS011;10380;52.102;20.614;2022-12-20T07:15:56;26.23;;;13.97;;
20441;SDS011;10380;52.102;20.614;2022-12-20T07:18:29;25.70;;;12.90;;
20441;SDS011;10380;52.102;20.614;2022-12-20T07:21:00;23.50;;;12.00;;
20441;SDS011;10380;52.102;20.614;2022-12-20T07:23:28;25.50;;;12.53;;
20441;SDS011;10380;52.102;20.614;2022-12-20T07:25:56;22.20;;;10.57;;
20441;SDS011;10380;52.102;20.614;2022-12-20T07:28:25;21.53;;;11.47;;
20441;SDS011;10380;52.102;20.614;2022-12-20T07:30:53;24.73;;;12.57;;
20441;SDS011;10380;52.102;20.614;2022-12-20T07:33:20;23.10;;;12.10;;
20441;SDS011;10380;52.102;20.614;2022-12-20T07:35:47;26.13;;;12.87;;
20441;SDS011;10380;52.102;20.614;2022-12-20T07:38:19;24.10;;;12.97;;
20441;SDS011;10380;52.102;20.614;2022-12-20T07:40:46;27.43;;;12.00;;
20441;SDS011;10380;52.102;20.614;2022-12-20T07:43:13;28.67;;;14.20;;
20441;SDS011;10380;52.102;20.614;2022-12-20T07:45:40;26.10;;;13.23;;
20441;SDS011;10380;52.102;20.614;2022-12-20T07:48:07;25.80;;;13.33;;
20441;SDS011;10380;52.102;20.614;2022-12-20T07:50:40;24.47;;;13.27;;
20441;SDS011;10380;52.102;20.614;2022-12-20T07:53:07;22.30;;;12.27;;
20441;SDS011;10380;52.102;20.614;2022-12-20T07:55:36;22.90;;;13.23;;
20441;SDS011;10380;52.102;20.614;2022-12-20T07:58:05;27.60;;;12.77;;
20441;SDS011;10380;52.102;20.614;2022-12-20T08:00:35;28.13;;;13.77;;
20441;SDS011;10380;52.102;20.614;2022-12-20T08:03:08;27.30;;;13.23;;
20441;SDS011;10380;52.102;20.614;2022-12-20T08:05:37;28.03;;;13.90;;
20441;SDS011;10380;52.102;20.614;2022-12-20T08:08:07;25.63;;;13.73;;
20441;SDS011;10380;52.102;20.614;2022-12-20T08:10:37;21.93;;;11.47;;
20441;SDS011;10380;52.102;20.614;2022-12-20T08:13:05;23.53;;;13.00;;
20441;SDS011;10380;52.102;20.614;2022-12-20T08:15:35;21.50;;;11.57;;
20441;SDS011;10380;52.102;20.614;2022-12-20T08:18:03;27.13;;;12.67;;
20441;SDS011;10380;52.102;20.614;2022-12-20T08:20:31;27.97;;;14.00;;
20441;SDS011;10380;52.102;20.614;2022-12-20T08:23:05;26.63;;;13.07;;
20441;SDS011;10380;52.102;20.614;2022-12-20T08:25:33;26.13;;;13.57;;
20441;SDS011;10380;52.102;20.614;2022-12-20T08:28:07;23.93;;;12.97;;
20441;SDS011;10380;52.102;20.614;2022-12-20T08:30:34;25.30;;;12.97;;
20441;SDS011;10380;52.102;20.614;2022-12-20T08:33:01;27.53;;;13.23;;
20441;SDS011;10380;52.102;20.614;2022-12-20T08:35:34;26.17;;;13.60;;
20441;SDS011;10380;52.102;20.614;2022-12-20T08:38:00;28.20;;;13.63;;
20441;SDS011;10380;52.102;20.614;2022-12-20T08:40:27;29.27;;;14.57;;
20441;SDS011;10380;52.102;20.614;2022-12-20T08:42:54;27.20;;;14.60;;
20441;SDS011;10380;52.102;20.614;2022-12-20T08:45:21;32.37;;;15.77;;
20441;SDS011;10380;52.102;20.614;2022-12-20T08:47:48;23.60;;;14.03;;
20441;SDS011;10380;52.102;20.614;2022-12-20T08:50:15;26.43;;;13.60;;
20441;SDS011;10380;52.102;20.614;2022-12-20T08:52:42;27.27;;;14.10;;
20441;SDS011;10380;52.102;20.614;2022-12-20T08:55:11;26.83;;;15.00;;
20441;SDS011;10380;52.102;20.614;2022-12-20T08:57:38;28.57;;;15.47;;
20441;SDS011;10380;52.102;20.614;2022-12-20T09:00:07;25.63;;;14.33;;
20441;SDS011;10380;52.102;20.614;2022-12-20T09:02:35;26.37;;;14.10;;
20441;SDS011;10380;52.102;20.614;2022-12-20T09:05:03;29.70;;;13.97;;
20441;SDS011;10380;52.102;20.614;2022-12-20T09:07:31;29.27;;;14.30;;
20441;SDS011;10380;52.102;20.614;2022-12-20T09:09:58;29.40;;;14.60;;
20441;SDS011;10380;52.102;20.614;2022-12-20T09:12:25;24.97;;;14.50;;
20441;SDS011;10380;52.102;20.614;2022-12-20T09:14:55;24.50;;;13.10;;
20441;SDS011;10380;52.102;20.614;2022-12-20T09:17:28;27.83;;;15.23;;
20441;SDS011;10380;52.102;20.614;2022-12-20T09:19:55;26.80;;;14.93;;
20441;SDS011;10380;52.102;20.614;2022-12-20T09:22:22;25.40;;;15.23;;
20441;SDS011;10380;52.102;20.614;2022-12-20T09:24:49;26.10;;;14.43;;
20441;SDS011;10380;52.102;20.614;2022-12-20T09:27:21;27.30;;;14.33;;
20441;SDS011;10380;52.102;20.614;2022-12-20T09:29:48;27.30;;;14.73;;
20441;SDS011;10380;52.102;20.614;2022-12-20T09:32:15;26.50;;;14.97;;
20441;SDS011;10380;52.102;20.614;2022-12-20T09:34:49;27.30;;;14.30;;
20441;SDS011;10380;52.102;20.614;2022-12-20T09:37:19;38.13;;;20.10;;
20441;SDS011;10380;52.102;20.614;2022-12-20T09:42:26;31.03;;;17.10;;
20441;SDS011;10380;52.102;20.614;2022-12-20T09:44:58;34.77;;;17.57;;
20441;SDS011;10380;52.102;20.614;2022-12-20T09:47:34;31.17;;;18.63;;
20441;SDS011;10380;52.102;20.614;2022-12-20T09:50:03;28.80;;;16.53;;
20441;SDS011;10380;52.102;20.614;2022-12-20T09:56:19;31.20;;;15.57;;
20441;SDS011;10380;52.102;20.614;2022-12-20T10:01:36;32.10;;;16.33;;
20441;SDS011;10380;52.102;20.614;2022-12-20T10:04:06;29.20;;;15.93;;
20441;SDS011;10380;52.102;20.614;2022-12-20T10:06:51;27.57;;;13.17;;
20441;SDS011;10380;52.102;20.614;2022-12-20T10:26:32;31.40;;;16.70;;
20441;SDS011;10380;52.102;20.614;2022-12-20T10:29:17;28.47;;;15.60;;
20441;SDS011;10380;52.102;20.614;2022-12-20T10:31:58;32.20;;;16.40;;
20441;SDS011;10380;52.102;20.614;2022-12-20T10:34:26;29.83;;;15.17;;
20441;SDS011;10380;52.102;20.614;2022-12-20T10:37:14;30.00;;;16.17;;
20441;SDS011;10380;52.102;20.614;2022-12-20T10:39:42;33.43;;;17.90;;
20441;SDS011;10380;52.102;20.614;2022-12-20T10:42:22;34.43;;;17.43;;
20441;SDS011;10380;52.102;20.614;2022-12-20T10:47:50;33.73;;;17.33;;
20441;SDS011;10380;52.102;20.614;2022-12-20T10:50:29;41.23;;;20.53;;
20441;SDS011;10380;52.102;20.614;2022-12-20T10:53:17;34.07;;;17.00;;
20441;SDS011;10380;52.102;20.614;2022-12-20T10:55:53;28.57;;;14.80;;
20441;SDS011;10380;52.102;20.614;2022-12-20T10:58:36;28.00;;;15.10;;
20441;SDS011;10380;52.102;20.614;2022-12-20T11:03:52;33.37;;;16.00;;
20441;SDS011;10380;52.102;20.614;2022-12-20T11:06:24;32.20;;;16.07;;
20441;SDS011;10380;52.102;20.614;2022-12-20T11:09:11;31.97;;;15.13;;
20441;SDS011;10380;52.102;20.614;2022-12-20T11:14:42;27.67;;;14.33;;
20441;SDS011;10380;52.102;20.614;2022-12-20T11:32:41;29.97;;;16.20;;
20441;SDS011;10380;52.102;20.614;2022-12-20T11:37:30;27.87;;;15.10;;
20441;SDS011;10380;52.102;20.614;2022-12-20T11:42:50;34.60;;;17.03;;
20441;SDS011;10380;52.102;20.614;2022-12-20T11:54:22;30.37;;;16.50;;
20441;SDS011;10380;52.102;20.614;2022-12-20T11:56:57;31.17;;;16.27;;
20441;SDS011;10380;52.102;20.614;2022-12-20T12:05:00;28.97;;;15.87;;
20441;SDS011;10380;52.102;20.614;2022-12-20T12:07:33;33.27;;;17.47;;
20441;SDS011;10380;52.102;20.614;2022-12-20T12:10:54;31.23;;;17.17;;
20441;SDS011;10380;52.102;20.614;2022-12-20T12:13:17;36.27;;;17.73;;
20441;SDS011;10380;52.102;20.614;2022-12-20T12:16:02;28.47;;;15.33;;
20441;SDS011;10380;52.102;20.614;2022-12-20T12:18:36;35.10;;;18.50;;
20441;SDS011;10380;52.102;20.614;2022-12-20T12:26:47;36.33;;;17.97;;
20441;SDS011;10380;52.102;20.614;2022-12-20T12:29:15;31.83;;;17.87;;
20441;SDS011;10380;52.102;20.614;2022-12-20T12:48:18;31.47;;;18.67;;
20441;SDS011;10380;52.102;20.614;2022-12-20T12:50:53;36.23;;;19.30;;
20441;SDS011;10380;52.102;20.614;2022-12-20T12:53:29;38.17;;;18.60;;
20441;SDS011;10380;52.102;20.614;2022-12-20T12:55:59;37.23;;;19.77;;
20441;SDS011;10380;52.102;20.614;2022-12-20T13:01:50;42.13;;;21.33;;
20441;SDS011;10380;52.102;20.614;2022-12-20T13:04:52;34.20;;;18.03;;
20441;SDS011;10380;52.102;20.614;2022-12-20T13:09:55;34.30;;;17.90;;
20441;SDS011;10380;52.102;20.614;2022-12-20T13:17:55;34.40;;;18.77;;
20441;SDS011;10380;52.102;20.614;2022-12-20T13:20:27;33.37;;;19.03;;
20441;SDS011;10380;52.102;20.614;2022-12-20T13:23:16;34.37;;;18.23;;
20441;SDS011;10380;52.102;20.614;2022-12-20T13:25:49;33.03;;;18.80;;
20441;SDS011;10380;52.102;20.614;2022-12-20T13:46:55;34.67;;;18.47;;
20441;SDS011;10380;52.102;20.614;2022-12-20T13:49:39;33.63;;;17.43;;
20441;SDS011;10380;52.102;20.614;2022-12-20T13:55:01;30.77;;;17.33;;
20441;SDS011;10380;52.102;20.614;2022-12-20T13:57:46;34.67;;;17.77;;
20441;SDS011;10380;52.102;20.614;2022-12-20T14:00:18;34.67;;;18.00;;
20441;SDS011;10380;52.102;20.614;2022-12-20T14:02:51;32.33;;;17.80;;
20441;SDS011;10380;52.102;20.614;2022-12-20T14:05:22;34.53;;;19.07;;
20441;SDS011;10380;52.102;20.614;2022-12-20T14:07:58;33.10;;;18.53;;
20441;SDS011;10380;52.102;20.614;2022-12-20T14:10:31;32.57;;;18.43;;
20441;SDS011;10380;52.102;20.614;2022-12-20T14:12:59;36.53;;;18.73;;
20441;SDS011;10380;52.102;20.614;2022-12-20T14:15:28;33.20;;;18.53;;
20441;SDS011;10380;52.102;20.614;2022-12-20T14:18:03;39.53;;;19.30;;
20441;SDS011;10380;52.102;20.614;2022-12-20T14:20:32;32.83;;;18.10;;
20441;SDS011;10380;52.102;20.614;2022-12-20T14:23:03;36.90;;;19.50;;
20441;SDS011;10380;52.102;20.614;2022-12-20T14:25:40;35.13;;;19.13;;
20441;SDS011;10380;52.102;20.614;2022-12-20T14:28:15;35.30;;;18.60;;
20441;SDS011;10380;52.102;20.614;2022-12-20T14:30:53;37.03;;;19.93;;
20441;SDS011;10380;52.102;20.614;2022-12-20T14:36:09;34.30;;;18.50;;
20441;SDS011;10380;52.102;20.614;2022-12-20T14:38:51;36.87;;;19.27;;
20441;SDS011;10380;52.102;20.614;2022-12-20T14:46:33;36.57;;;19.03;;
20441;SDS011;10380;52.102;20.614;2022-12-20T14:52:03;38.20;;;19.83;;
20441;SDS011;10380;52.102;20.614;2022-12-20T14:57:37;39.87;;;20.70;;
20441;SDS011;10380;52.102;20.614;2022-12-20T15:00:26;44.10;;;20.17;;
20441;SDS011;10380;52.102;20.614;2022-12-20T15:03:00;40.10;;;20.57;;
20441;SDS011;10380;52.102;20.614;2022-12-20T15:05:49;38.60;;;19.90;;
20441;SDS011;10380;52.102;20.614;2022-12-20T15:13:38;39.13;;;20.10;;
20441;SDS011;10380;52.102;20.614;2022-12-20T15:16:18;32.90;;;18.50;;
20441;SDS011;10380;52.102;20.614;2022-12-20T15:18:46;36.37;;;19.87;;
20441;SDS011;10380;52.102;20.614;2022-12-20T15:21:15;40.80;;;20.70;;
20441;SDS011;10380;52.102;20.614;2022-12-20T15:23:45;36.23;;;20.33;;
20441;SDS011;10380;52.102;20.614;2022-12-20T15:26:14;40.33;;;20.00;;
20441;SDS011;10380;52.102;20.614;2022-12-20T15:28:42;37.87;;;19.50;;
20441;SDS011;10380;52.102;20.614;2022-12-20T15:31:09;38.30;;;18.83;;
20441;SDS011;10380;52.102;20.614;2022-12-20T15:33:41;36.30;;;19.50;;
20441;SDS011;10380;52.102;20.614;2022-12-20T15:36:15;36.47;;;20.20;;
20441;SDS011;10380;52.102;20.614;2022-12-20T15:38:43;36.30;;;19.57;;
20441;SDS011;10380;52.102;20.614;2022-12-20T15:41:31;37.17;;;20.70;;
20441;SDS011;10380;52.102;20.614;2022-12-20T15:44:00;35.10;;;17.90;;
20441;SDS011;10380;52.102;20.614;2022-12-20T15:46:31;41.67;;;19.70;;
20441;SDS011;10380;52.102;20.614;2022-12-20T15:48:58;37.23;;;18.93;;
20441;SDS011;10380;52.102;20.614;2022-12-20T15:51:26;35.77;;;20.33;;
20441;SDS011;10380;52.102;20.614;2022-12-20T15:53:57;40.80;;;19.73;;
20441;SDS011;10380;52.102;20.614;2022-12-20T15:56:25;39.40;;;19.07;;
20441;SDS011;10380;52.102;20.614;2022-12-20T15:58:53;40.27;;;21.40;;
20441;SDS011;10380;52.102;20.614;2022-12-20T16:03:49;40.67;;;21.27;;
20441;SDS011;10380;52.102;20.614;2022-12-20T16:06:16;43.63;;;22.47;;
20441;SDS011;10380;52.102;20.614;2022-12-20T16:08:43;35.93;;;19.37;;
20441;SDS011;10380;52.102;20.614;2022-12-20T16:11:18;39.57;;;20.77;;
20441;SDS011;10380;52.102;20.614;2022-12-20T16:13:53;36.50;;;20.40;;
20441;SDS011;10380;52.102;20.614;2022-12-20T16:16:42;38.80;;;20.53;;
20441;SDS011;10380;52.102;20.614;2022-12-20T16:19:10;38.70;;;21.17;;
20441;SDS011;10380;52.102;20.614;2022-12-20T16:21:41;39.23;;;19.67;;
20441;SDS011;10380;52.102;20.614;2022-12-20T16:24:11;38.93;;;19.57;;
20441;SDS011;10380;52.102;20.614;2022-12-20T16:26:40;40.03;;;20.37;;
20441;SDS011;10380;52.102;20.614;2022-12-20T16:29:07;38.53;;;19.13;;
20441;SDS011;10380;52.102;20.614;2022-12-20T16:31:35;40.97;;;21.40;;
20441;SDS011;10380;52.102;20.614;2022-12-20T16:34:04;35.73;;;19.07;;
20441;SDS011;10380;52.102;20.614;2022-12-20T16:36:32;42.50;;;20.57;;
20441;SDS011;10380;52.102;20.614;2022-12-20T16:38:59;37.63;;;19.57;;
20441;SDS011;10380;52.102;20.614;2022-12-20T16:41:27;40.10;;;20.53;;
20441;SDS011;10380;52.102;20.614;2022-12-20T16:43:56;40.73;;;21.00;;
20441;SDS011;10380;52.102;20.614;2022-12-20T16:46:26;39.70;;;20.20;;
20441;SDS011;10380;52.102;20.614;2022-12-20T16:48:56;41.73;;;21.93;;
20441;SDS011;10380;52.102;20.614;2022-12-20T16:54:06;37.47;;;19.93;;
20441;SDS011;10380;52.102;20.614;2022-12-20T16:56:48;39.63;;;21.23;;
20441;SDS011;10380;52.102;20.614;2022-12-20T16:59:25;40.00;;;20.43;;
20441;SDS011;10380;52.102;20.614;2022-12-20T17:01:53;41.87;;;20.40;;
20441;SDS011;10380;52.102;20.614;2022-12-20T17:04:22;38.00;;;20.57;;
20441;SDS011;10380;52.102;20.614;2022-12-20T17:06:52;38.27;;;20.63;;
20441;SDS011;10380;52.102;20.614;2022-12-20T17:09:18;34.93;;;20.20;;
20441;SDS011;10380;52.102;20.614;2022-12-20T17:11:45;41.03;;;20.90;;
20441;SDS011;10380;52.102;20.614;2022-12-20T17:14:15;40.37;;;20.70;;
20441;SDS011;10380;52.102;20.614;2022-12-20T17:16:43;38.73;;;21.37;;
20441;SDS011;10380;52.102;20.614;2022-12-20T17:19:10;42.43;;;23.40;;